sensor_id;sensor_type;location;lat;lon;timestamp;pressure;altitude;pressure_sealevel;temperature;humidity
11643;BME280;5877;50.930;6.918;2023-08-17T05:12:23;101189.09;;;19.27;100.00
11643;BME280;5877;50.930;6.918;2023-08-17T05:17:19;101228.56;;;19.67;100.00
11643;BME280;5877;50.930;6.918;2023-08-17T05:22:14;101214.72;;;19.70;100.00
11643;BME280;5877;50.930;6.918;2023-08-17T05:27:09;101228.66;;;19.83;100.00
11643;BME280;5877;50.930;6.918;2023-08-17T05:32:03;101208.13;;;19.78;100.00
11643;BME280;5877;50.930;6.918;2023-08-17T05:36:58;101245.56;;;20.03;100.00
11643;BME280;5877;50.930;6.918;2023-08-17T05:42:10;101184.63;;;19.70;100.00
11643;BME280;5877;50.930;6.918;2023-08-17T05:47:20;100918.53;;;18.06;100.00
11643;BME280;5877;50.930;6.918;2023-08-17T05:52:21;101150.97;;;19.54;98.53
11643;BME280;5877;50.930;6.918;2023-08-17T05:57:16;101104.00;;;19.37;94.84
11643;BME280;5877;50.930;6.918;2023-08-17T06:02:19;101234.22;;;20.33;92.49
11643;BME280;5877;50.930;6.918;2023-08-17T06:07:11;101231.28;;;20.30;90.88
11643;BME280;5877;50.930;6.918;2023-08-17T06:12:09;101194.00;;;20.40;88.09
11643;BME280;5877;50.930;6.918;2023-08-17T06:17:20;101230.09;;;20.88;85.07
11643;BME280;5877;50.930;6.918;2023-08-17T06:22:15;101229.59;;;21.17;82.20
11643;BME280;5877;50.930;6.918;2023-08-17T06:27:13;101180.19;;;20.99;80.06
11643;BME280;5877;50.930;6.918;2023-08-17T06:32:08;101174.84;;;20.94;79.99
11643;BME280;5877;50.930;6.918;2023-08-17T06:37:02;101250.44;;;21.60;78.94
11643;BME280;5877;50.930;6.918;2023-08-17T06:41:57;101201.56;;;21.19;79.55
11643;BME280;5877;50.930;6.918;2023-08-17T06:46:53;100970.00;;;20.20;76.38
11643;BME280;5877;50.930;6.918;2023-08-17T06:51:51;100975.88;;;20.52;74.33
11643;BME280;5877;50.930;6.918;2023-08-17T07:03:03;100963.88;;;20.50;72.49
11643;BME280;5877;50.930;6.918;2023-08-17T07:08:37;101250.28;;;22.26;73.42
11643;BME280;5877;50.930;6.918;2023-08-17T07:14:58;100973.72;;;20.80;71.77
11643;BME280;5877;50.930;6.918;2023-08-17T07:20:04;100960.25;;;21.10;69.66
11643;BME280;5877;50.930;6.918;2023-08-17T07:25:06;101259.03;;;23.30;68.22
11643;BME280;5877;50.930;6.918;2023-08-17T07:30:14;101162.00;;;22.71;67.33
11643;BME280;5877;50.930;6.918;2023-08-17T07:35:23;101047.47;;;22.39;65.15
11643;BME280;5877;50.930;6.918;2023-08-17T07:40:47;100989.75;;;22.32;64.51
11643;BME280;5877;50.930;6.918;2023-08-17T07:45:43;101279.66;;;24.41;63.38
11643;BME280;5877;50.930;6.918;2023-08-17T07:50:40;101166.34;;;23.53;63.28
11643;BME280;5877;50.930;6.918;2023-08-17T07:55:37;101057.78;;;22.55;64.09
11643;BME280;5877;50.930;6.918;2023-08-17T08:00:32;101007.59;;;22.08;65.04
11643;BME280;5877;50.930;6.918;2023-08-17T08:05:26;101286.59;;;23.65;66.30
11643;BME280;5877;50.930;6.918;2023-08-17T08:10:21;101171.75;;;22.95;66.34
11643;BME280;5877;50.930;6.918;2023-08-17T08:28:22;101020.56;;;22.59;63.17
11643;BME280;5877;50.930;6.918;2023-08-17T08:39:17;101009.91;;;22.83;62.76
11643;BME280;5877;50.930;6.918;2023-08-17T08:44:13;101113.28;;;23.79;61.72
11643;BME280;5877;50.930;6.918;2023-08-17T08:49:42;101281.84;;;25.33;60.27
11643;BME280;5877;50.930;6.918;2023-08-17T08:54:49;101092.81;;;24.26;60.20
11643;BME280;5877;50.930;6.918;2023-08-17T09:00:00;101004.25;;;23.51;60.03
11643;BME280;5877;50.930;6.918;2023-08-17T09:05:02;101009.88;;;23.12;61.08
11643;BME280;5877;50.930;6.918;2023-08-17T09:09:56;101272.44;;;24.79;61.71
11643;BME280;5877;50.930;6.918;2023-08-17T09:14:52;101235.19;;;24.91;60.26
11643;BME280;5877;50.930;6.918;2023-08-17T09:19:49;101132.09;;;24.73;59.07
11643;BME280;5877;50.930;6.918;2023-08-17T09:24:52;101029.53;;;24.57;57.98
11643;BME280;5877;50.930;6.918;2023-08-17T09:30:08;101267.09;;;26.04;57.99
11643;BME280;5877;50.930;6.918;2023-08-17T09:35:12;101120.78;;;25.36;56.93
11643;BME280;5877;50.930;6.918;2023-08-17T09:40:05;101258.13;;;26.49;56.78
11643;BME280;5877;50.930;6.918;2023-08-17T09:45:02;101253.09;;;26.70;56.05
11643;BME280;5877;50.930;6.918;2023-08-17T09:49:57;101243.91;;;26.94;54.67
11643;BME280;5877;50.930;6.918;2023-08-17T09:54:52;101237.00;;;27.24;54.14
11643;BME280;5877;50.930;6.918;2023-08-17T09:59:45;101084.75;;;26.59;53.06
11643;BME280;5877;50.930;6.918;2023-08-17T10:04:38;101104.81;;;26.75;52.52
11643;BME280;5877;50.930;6.918;2023-08-17T10:09:43;101216.28;;;27.33;52.86
11643;BME280;5877;50.930;6.918;2023-08-17T10:14:49;101237.88;;;27.10;53.27
11643;BME280;5877;50.930;6.918;2023-08-17T10:19:54;101233.50;;;26.78;54.74
11643;BME280;5877;50.930;6.918;2023-08-17T10:25:00;101067.13;;;25.59;54.81
11643;BME280;5877;50.930;6.918;2023-08-17T10:29:53;101121.72;;;26.09;54.54
11643;BME280;5877;50.930;6.918;2023-08-17T10:34:48;101192.28;;;26.56;54.46
11643;BME280;5877;50.930;6.918;2023-08-17T10:39:48;101146.31;;;26.52;53.52
11643;BME280;5877;50.930;6.918;2023-08-17T10:44:46;101137.41;;;26.29;54.37
11643;BME280;5877;50.930;6.918;2023-08-17T10:49:44;101090.53;;;25.72;55.23
11643;BME280;5877;50.930;6.918;2023-08-17T10:54:42;101087.03;;;25.03;56.34
11643;BME280;5877;50.930;6.918;2023-08-17T10:59:37;100989.63;;;24.37;56.94
11643;BME280;5877;50.930;6.918;2023-08-17T11:04:33;101146.56;;;25.23;57.11
11643;BME280;5877;50.930;6.918;2023-08-17T11:09:28;101136.03;;;24.95;57.83
11643;BME280;5877;50.930;6.918;2023-08-17T11:14:22;101252.59;;;25.91;57.56
11643;BME280;5877;50.930;6.918;2023-08-17T11:19:25;101253.88;;;25.94;58.00
11643;BME280;5877;50.930;6.918;2023-08-17T11:24:18;101200.22;;;25.29;58.58
11643;BME280;5877;50.930;6.918;2023-08-17T11:29:13;101206.31;;;25.48;58.45
11643;BME280;5877;50.930;6.918;2023-08-17T11:34:07;101221.09;;;25.78;57.83
11643;BME280;5877;50.930;6.918;2023-08-17T11:39:00;101160.91;;;25.60;56.72
11643;BME280;5877;50.930;6.918;2023-08-17T11:44:04;101226.13;;;27.06;54.71
11643;BME280;5877;50.930;6.918;2023-08-17T11:49:05;101151.66;;;27.98;50.94
11643;BME280;5877;50.930;6.918;2023-08-17T11:54:28;101108.03;;;28.31;49.10
11643;BME280;5877;50.930;6.918;2023-08-17T11:59:32;101149.63;;;28.56;49.34
11643;BME280;5877;50.930;6.918;2023-08-17T12:05:09;101093.06;;;28.07;49.12
11643;BME280;5877;50.930;6.918;2023-08-17T12:10:14;101239.34;;;29.77;47.66
11643;BME280;5877;50.930;6.918;2023-08-17T12:15:34;101130.53;;;29.63;46.46
11643;BME280;5877;50.930;6.918;2023-08-17T12:20:42;100976.97;;;28.42;46.57
11643;BME280;5877;50.930;6.918;2023-08-17T12:26:00;101031.28;;;29.55;45.04
11643;BME280;5877;50.930;6.918;2023-08-17T12:31:25;101001.31;;;29.81;44.46
11643;BME280;5877;50.930;6.918;2023-08-17T12:36:45;100974.69;;;29.20;44.81
11643;BME280;5877;50.930;6.918;2023-08-17T12:41:47;101225.53;;;30.50;45.44
11643;BME280;5877;50.930;6.918;2023-08-17T12:46:59;101077.91;;;28.67;47.42
11643;BME280;5877;50.930;6.918;2023-08-17T12:52:07;101080.69;;;27.80;48.91
11643;BME280;5877;50.930;6.918;2023-08-17T12:57:13;100982.22;;;26.87;49.99
11643;BME280;5877;50.930;6.918;2023-08-17T13:02:25;101061.19;;;27.27;50.58
11643;BME280;5877;50.930;6.918;2023-08-17T13:07:26;100988.00;;;26.63;51.70
11643;BME280;5877;50.930;6.918;2023-08-17T13:12:30;100968.22;;;26.67;51.77
11643;BME280;5877;50.930;6.918;2023-08-17T13:17:24;100954.06;;;26.31;51.68
11643;BME280;5877;50.930;6.918;2023-08-17T13:22:32;101234.13;;;29.17;48.68
11643;BME280;5877;50.930;6.918;2023-08-17T13:28:01;101108.53;;;28.97;47.56
11643;BME280;5877;50.930;6.918;2023-08-17T13:33:22;101130.28;;;29.09;46.87
11643;BME280;5877;50.930;6.918;2023-08-17T13:38:48;101105.72;;;29.61;45.52
11643;BME280;5877;50.930;6.918;2023-08-17T13:43:58;100955.13;;;28.94;45.30
11643;BME280;5877;50.930;6.918;2023-08-17T13:49:20;101036.88;;;29.91;44.46
11643;BME280;5877;50.930;6.918;2023-08-17T13:54:18;101162.44;;;29.78;46.79
11643;BME280;5877;50.930;6.918;2023-08-17T13:59:23;101034.47;;;28.42;48.54
11643;BME280;5877;50.930;6.918;2023-08-17T14:04:37;101047.03;;;28.94;47.06
11643;BME280;5877;50.930;6.918;2023-08-17T14:09:50;101088.31;;;29.03;47.17
11643;BME280;5877;50.930;6.918;2023-08-17T14:15:12;101107.16;;;28.73;48.87
11643;BME280;5877;50.930;6.918;2023-08-17T14:20:24;101064.31;;;27.60;50.62
11643;BME280;5877;50.930;6.918;2023-08-17T14:25:19;101004.31;;;26.97;51.49
11643;BME280;5877;50.930;6.918;2023-08-17T14:30:56;100882.81;;;25.66;52.81
11643;BME280;5877;50.930;6.918;2023-08-17T14:36:12;101146.44;;;27.14;54.08
11643;BME280;5877;50.930;6.918;2023-08-17T14:41:14;100848.38;;;25.32;53.69
11643;BME280;5877;50.930;6.918;2023-08-17T14:46:10;100979.03;;;26.23;53.82
11643;BME280;5877;50.930;6.918;2023-08-17T14:51:09;100843.84;;;25.64;53.16
11643;BME280;5877;50.930;6.918;2023-08-17T14:56:01;101027.28;;;26.64;53.55
11643;BME280;5877;50.930;6.918;2023-08-17T15:00:59;101068.72;;;27.07;53.67
11643;BME280;5877;50.930;6.918;2023-08-17T15:06:34;100950.53;;;26.44;52.87
11643;BME280;5877;50.930;6.918;2023-08-17T15:12:15;101098.53;;;27.59;53.30
11643;BME280;5877;50.930;6.918;2023-08-17T15:17:24;100829.09;;;25.75;52.62
11643;BME280;5877;50.930;6.918;2023-08-17T15:22:30;100985.25;;;26.85;52.25
11643;BME280;5877;50.930;6.918;2023-08-17T15:27:26;101090.59;;;27.06;53.75
11643;BME280;5877;50.930;6.918;2023-08-17T15:32:20;101029.84;;;26.69;54.20
11643;BME280;5877;50.930;6.918;2023-08-17T15:37:17;101032.88;;;26.98;54.03
11643;BME280;5877;50.930;6.918;2023-08-17T15:42:33;100873.56;;;26.12;53.52
11643;BME280;5877;50.930;6.918;2023-08-17T15:48:11;100848.84;;;25.70;54.28
11643;BME280;5877;50.930;6.918;2023-08-17T15:59:09;101033.44;;;26.33;55.58
11643;BME280;5877;50.930;6.918;2023-08-17T16:04:03;101015.69;;;26.32;55.95
11643;BME280;5877;50.930;6.918;2023-08-17T16:09:01;101023.78;;;26.32;55.36
11643;BME280;5877;50.930;6.918;2023-08-17T16:13:54;100994.03;;;26.15;55.92
11643;BME280;5877;50.930;6.918;2023-08-17T16:18:47;101056.25;;;26.36;56.46
11643;BME280;5877;50.930;6.918;2023-08-17T16:23:43;100962.09;;;25.91;55.85
11643;BME280;5877;50.930;6.918;2023-08-17T16:28:37;101071.81;;;26.25;57.09
11643;BME280;5877;50.930;6.918;2023-08-17T16:33:31;100902.47;;;25.17;57.51
11643;BME280;5877;50.930;6.918;2023-08-17T16:38:23;101051.97;;;25.76;58.46
11643;BME280;5877;50.930;6.918;2023-08-17T16:43:16;100988.13;;;25.32;58.82
11643;BME280;5877;50.930;6.918;2023-08-17T16:48:16;101049.59;;;25.61;59.33
11643;BME280;5877;50.930;6.918;2023-08-17T16:53:22;101037.84;;;25.57;59.50
11643;BME280;5877;50.930;6.918;2023-08-17T16:58:15;100900.00;;;24.66;59.62
11643;BME280;5877;50.930;6.918;2023-08-17T17:03:11;101007.84;;;25.14;59.98
11643;BME280;5877;50.930;6.918;2023-08-17T17:08:12;101054.00;;;25.30;60.47
11643;BME280;5877;50.930;6.918;2023-08-17T17:13:10;101014.59;;;24.98;60.59
11643;BME280;5877;50.930;6.918;2023-08-17T17:18:06;101075.31;;;25.26;60.86
11643;BME280;5877;50.930;6.918;2023-08-17T17:23:02;101077.28;;;25.07;61.51
11643;BME280;5877;50.930;6.918;2023-08-17T17:28:02;100955.13;;;24.31;61.40
11643;BME280;5877;50.930;6.918;2023-08-17T17:32:55;101065.69;;;24.92;61.78
11643;BME280;5877;50.930;6.918;2023-08-17T17:37:52;101087.63;;;24.67;63.15
11643;BME280;5877;50.930;6.918;2023-08-17T17:42:56;101072.13;;;24.08;65.00
11643;BME280;5877;50.930;6.918;2023-08-17T17:47:52;100941.41;;;23.24;65.32
11643;BME280;5877;50.930;6.918;2023-08-17T17:52:45;101069.75;;;24.06;65.53
11643;BME280;5877;50.930;6.918;2023-08-17T17:57:46;101104.78;;;24.34;65.10
11643;BME280;5877;50.930;6.918;2023-08-17T18:02:39;101059.97;;;23.96;64.59
11643;BME280;5877;50.930;6.918;2023-08-17T18:07:32;101076.41;;;23.90;65.37
11643;BME280;5877;50.930;6.918;2023-08-17T18:12:29;101127.00;;;23.96;66.28
11643;BME280;5877;50.930;6.918;2023-08-17T18:17:40;100840.34;;;21.92;66.76
11643;BME280;5877;50.930;6.918;2023-08-17T18:22:32;100976.59;;;22.65;68.19
11643;BME280;5877;50.930;6.918;2023-08-17T18:27:27;101039.94;;;23.04;68.45
11643;BME280;5877;50.930;6.918;2023-08-17T18:32:32;101071.53;;;22.73;70.43
11643;BME280;5877;50.930;6.918;2023-08-17T18:37:31;100958.28;;;21.85;71.91
11643;BME280;5877;50.930;6.918;2023-08-17T18:42:39;101068.91;;;22.33;73.13
11643;BME280;5877;50.930;6.918;2023-08-17T18:47:35;100953.47;;;21.38;75.65
11643;BME280;5877;50.930;6.918;2023-08-17T18:52:37;101128.13;;;22.17;77.00
11643;BME280;5877;50.930;6.918;2023-08-17T18:57:45;100947.34;;;20.63;77.94
11643;BME280;5877;50.930;6.918;2023-08-17T19:02:45;101139.16;;;21.95;78.65
11643;BME280;5877;50.930;6.918;2023-08-17T19:07:40;101027.81;;;21.00;80.37
11643;BME280;5877;50.930;6.918;2023-08-17T19:12:35;101156.38;;;21.68;81.35
11643;BME280;5877;50.930;6.918;2023-08-17T19:17:31;101094.25;;;21.22;81.73
11643;BME280;5877;50.930;6.918;2023-08-17T19:22:25;101041.75;;;20.77;82.57
11643;BME280;5877;50.930;6.918;2023-08-17T19:27:18;101121.22;;;21.26;82.45
11643;BME280;5877;50.930;6.918;2023-08-17T19:32:11;101166.03;;;21.54;81.98
11643;BME280;5877;50.930;6.918;2023-08-17T19:37:04;101087.81;;;21.18;81.51
11643;BME280;5877;50.930;6.918;2023-08-17T19:41:58;101112.13;;;21.32;81.91
11643;BME280;5877;50.930;6.918;2023-08-17T19:46:54;101096.66;;;21.08;83.07
11643;BME280;5877;50.930;6.918;2023-08-17T19:51:56;101076.38;;;20.92;83.47
11643;BME280;5877;50.930;6.918;2023-08-17T19:56:49;101047.88;;;20.62;84.63
11643;BME280;5877;50.930;6.918;2023-08-17T20:01:55;101129.75;;;21.02;85.17
11643;BME280;5877;50.930;6.918;2023-08-17T20:06:50;101126.28;;;20.92;86.76
11643;BME280;5877;50.930;6.918;2023-08-17T20:11:46;101140.44;;;20.97;87.57
11643;BME280;5877;50.930;6.918;2023-08-17T20:16:41;101001.16;;;19.99;88.50
11643;BME280;5877;50.930;6.918;2023-08-17T20:21:34;100933.72;;;19.68;87.02
11643;BME280;5877;50.930;6.918;2023-08-17T20:26:30;101140.97;;;20.94;88.04
11643;BME280;5877;50.930;6.918;2023-08-17T20:31:24;101040.66;;;20.22;88.50
11643;BME280;5877;50.930;6.918;2023-08-17T20:36:18;100923.50;;;19.39;89.44
11643;BME280;5877;50.930;6.918;2023-08-17T20:41:14;100939.25;;;19.51;90.15
11643;BME280;5877;50.930;6.918;2023-08-17T20:46:13;101035.03;;;20.08;91.40
11643;BME280;5877;50.930;6.918;2023-08-17T20:51:11;100976.03;;;19.54;91.97
11643;BME280;5877;50.930;6.918;2023-08-17T20:56:04;101003.22;;;19.66;92.98
11643;BME280;5877;50.930;6.918;2023-08-17T21:00:58;101145.78;;;20.62;93.37
11643;BME280;5877;50.930;6.918;2023-08-17T21:05:51;101150.56;;;20.45;95.01
11643;BME280;5877;50.930;6.918;2023-08-17T21:10:47;101089.41;;;20.07;95.18
11643;BME280;5877;50.930;6.918;2023-08-17T21:15:44;101078.44;;;19.99;96.43
11643;BME280;5877;50.930;6.918;2023-08-17T21:20:40;101140.63;;;20.35;97.19
11643;BME280;5877;50.930;6.918;2023-08-17T21:25:32;100815.81;;;18.22;97.59
11643;BME280;5877;50.930;6.918;2023-08-17T21:30:26;101129.41;;;20.18;99.19
11643;BME280;5877;50.930;6.918;2023-08-17T21:35:19;101114.47;;;20.12;98.48
11643;BME280;5877;50.930;6.918;2023-08-17T21:40:17;101135.03;;;20.26;98.56
11643;BME280;5877;50.930;6.918;2023-08-17T21:45:13;101152.91;;;20.31;99.42
11643;BME280;5877;50.930;6.918;2023-08-17T21:50:08;100882.50;;;18.63;99.40
11643;BME280;5877;50.930;6.918;2023-08-17T21:55:01;101062.91;;;19.70;100.00
11643;BME280;5877;50.930;6.918;2023-08-17T21:59:54;101079.44;;;19.77;100.00
11643;BME280;5877;50.930;6.918;2023-08-17T22:04:50;100991.84;;;19.19;100.00
11643;BME280;5877;50.930;6.918;2023-08-17T22:09:44;101137.13;;;20.14;100.00
11643;BME280;5877;50.930;6.918;2023-08-17T22:14:50;101120.81;;;20.00;100.00
11643;BME280;5877;50.930;6.918;2023-08-17T22:19:47;100995.03;;;19.21;100.00
11643;BME280;5877;50.930;6.918;2023-08-17T22:24:40;100992.34;;;19.16;100.00
11643;BME280;5877;50.930;6.918;2023-08-17T22:29:37;100994.75;;;19.17;100.00
11643;BME280;5877;50.930;6.918;2023-08-17T22:34:33;101113.34;;;19.97;100.00
11643;BME280;5877;50.930;6.918;2023-08-17T22:39:38;101100.78;;;19.88;100.00
11643;BME280;5877;50.930;6.918;2023-08-17T22:50:20;100926.13;;;18.67;100.00
11643;BME280;5877;50.930;6.918;2023-08-17T22:55:31;101122.91;;;19.88;100.00
11643;BME280;5877;50.930;6.918;2023-08-17T23:00:49;101118.91;;;19.86;100.00
